Time;durP1;ratioP1;P1;durP2;ratioP2;P2;SDS_P1;SDS_P2;PMS_P1;PMS_P2;Temp;Humidity;BMP_temperature;BMP_pressure;BME280_temperature;BME280_humidity;BME280_pressure;Samples;Min_cycle;Max_cycle;Signal;HPM_P1;HPM_P2
2022/01/05 00:00:14;;;;;;;;;;;5.50;99.90;;;;;;5134903;28;19911;-77
2022/01/05 00:02:40;;;;;;;;;;;5.50;99.90;;;;;;5134668;28;19919;-77
2022/01/05 00:05:06;;;;;;;;;;;5.50;99.90;;;;;;5133942;28;19915;-76
2022/01/05 00:07:31;;;;;;;;;;;5.50;99.90;;;;;;5098166;28;20512;-78
2022/01/05 00:09:58;;;;;;;;;;;5.50;99.90;;;;;;5115276;28;19907;-78
2022/01/05 00:12:24;;;;;;;;;;;5.40;99.90;;;;;;5115016;28;20006;-77
2022/01/05 00:14:50;;;;;;;;;;;5.30;99.90;;;;;;5133510;28;19958;-78
2022/01/05 00:17:15;;;;;;;;;;;5.30;99.90;;;;;;5114902;28;19915;-85
2022/01/05 00:19:41;;;;;;;;;;;5.30;99.90;;;;;;5133421;28;19930;-78
2022/01/05 00:22:06;;;;;;;;;;;5.20;99.90;;;;;;5135850;27;20379;-78
2022/01/05 00:24:32;;;;;;;;;;;5.20;99.90;;;;;;5119941;27;19963;-77
2022/01/05 00:26:57;;;;;;;;;;;5.20;99.90;;;;;;5093905;27;19942;-80
2022/01/05 00:29:23;;;;;;;;;;;5.20;99.90;;;;;;5120984;27;19951;-77
2022/01/05 00:31:49;;;;;;;;;;;5.10;99.90;;;;;;5140478;27;20417;-77
2022/01/05 00:34:14;;;;;;;;;;;5.10;99.90;;;;;;5122001;27;19908;-80
2022/01/05 00:36:40;;;;;;;;;;;5.10;99.90;;;;;;5102478;27;19912;-77
2022/01/05 00:39:06;;;;;;;;;;;5.00;99.90;;;;;;5137436;27;20304;-77
2022/01/05 00:41:31;;;;;;;;;;;5.00;99.90;;;;;;5118077;27;19928;-77
2022/01/05 00:43:57;;;;;;;;;;;5.00;99.90;;;;;;5118948;27;19911;-77
2022/01/05 00:46:22;;;;;;;;;;;5.00;99.90;;;;;;5101546;27;19965;-77
2022/01/05 00:48:48;;;;;;;;;;;5.00;99.90;;;;;;5118986;27;20287;-77
2022/01/05 00:51:15;;;;;;;;;;;5.00;99.90;;;;;;5137088;27;19952;-77
2022/01/05 00:53:41;;;;;;;;;;;4.90;99.90;;;;;;5136647;27;19930;-77
2022/01/05 00:56:06;;;;;;;;;;;4.90;99.90;;;;;;5137027;27;19908;-77
2022/01/05 00:58:32;;;;;;;;;;;4.80;99.90;;;;;;5117941;27;20244;-77
2022/01/05 01:00:58;;;;;;;;;;;4.70;99.90;;;;;;5101398;27;20368;-77
2022/01/05 01:03:27;;;;;;;;;;;4.70;99.90;;;;;;5136038;27;19934;-78
2022/01/05 01:05:52;;;;;;;;;;;4.70;99.90;;;;;;5136973;27;19914;-77
2022/01/05 01:08:18;;;;;;;;;;;4.60;99.90;;;;;;5136518;27;19915;-77
2022/01/05 01:10:43;;;;;;;;;;;4.60;99.90;;;;;;5136333;27;19960;-77
2022/01/05 01:13:09;;;;;;;;;;;4.60;99.90;;;;;;5136700;27;19911;-77
2022/01/05 01:15:34;;;;;;;;;;;4.50;99.90;;;;;;5117182;27;19922;-77
2022/01/05 01:18:00;;;;;;;;;;;4.50;99.90;;;;;;5118177;27;19912;-78
2022/01/05 01:20:25;;;;;;;;;;;4.50;99.90;;;;;;5100333;27;19916;-77
2022/01/05 01:22:51;;;;;;;;;;;4.40;99.90;;;;;;5136300;27;19927;-79
2022/01/05 01:25:16;;;;;;;;;;;4.40;99.90;;;;;;5117678;27;20006;-77
2022/01/05 01:27:43;;;;;;;;;;;4.30;99.90;;;;;;5117487;27;19946;-78
2022/01/05 01:30:11;;;;;;;;;;;4.20;99.90;;;;;;5117661;27;19911;-76
2022/01/05 01:32:38;;;;;;;;;;;4.10;99.90;;;;;;5134202;27;19908;-78
2022/01/05 01:35:04;;;;;;;;;;;4.10;99.90;;;;;;5117261;27;19915;-78
2022/01/05 01:37:29;;;;;;;;;;;4.00;99.90;;;;;;5100195;27;19911;-77
2022/01/05 01:39:55;;;;;;;;;;;3.90;99.90;;;;;;5100415;27;19926;-76
2022/01/05 01:42:20;;;;;;;;;;;3.90;99.90;;;;;;5136241;27;20325;-76
2022/01/05 01:44:46;;;;;;;;;;;3.80;99.90;;;;;;5100259;27;19964;-76
2022/01/05 01:47:11;;;;;;;;;;;3.80;99.90;;;;;;5135884;27;20359;-76
2022/01/05 01:49:37;;;;;;;;;;;3.70;99.90;;;;;;5116579;27;19912;-76
2022/01/05 01:52:02;;;;;;;;;;;3.70;99.90;;;;;;5100602;27;19912;-77
2022/01/05 01:54:28;;;;;;;;;;;3.60;99.90;;;;;;5134889;27;19929;-82
2022/01/05 01:56:54;;;;;;;;;;;3.60;99.90;;;;;;5135775;27;20377;-76
2022/01/05 01:59:20;;;;;;;;;;;3.60;99.90;;;;;;5107836;28;19916;-76
2022/01/05 02:01:46;;;;;;;;;;;3.50;99.90;;;;;;5096220;28;19930;-77
2022/01/05 02:04:11;;;;;;;;;;;3.50;99.90;;;;;;5079890;28;20014;-77
2022/01/05 02:06:37;;;;;;;;;;;3.40;99.90;;;;;;5113889;28;19960;-77
2022/01/05 02:09:03;;;;;;;;;;;3.40;99.90;;;;;;5115175;28;19964;-76
2022/01/05 02:11:30;;;;;;;;;;;3.30;99.90;;;;;;5114561;28;19908;-82
2022/01/05 02:13:56;;;;;;;;;;;3.30;99.90;;;;;;5126741;27;19957;-76
2022/01/05 02:16:29;;;;;;;;;;;3.20;99.90;;;;;;5135383;27;19961;-76
2022/01/05 02:19:00;;;;;;;;;;;3.20;99.90;;;;;;5134983;27;19912;-76
2022/01/05 02:21:28;;;;;;;;;;;3.20;99.90;;;;;;5134899;27;19975;-77
2022/01/05 02:23:54;;;;;;;;;;;3.10;99.90;;;;;;5134795;27;19954;-76
2022/01/05 02:26:19;;;;;;;;;;;3.10;99.90;;;;;;5135050;27;19912;-76
2022/01/05 02:28:45;;;;;;;;;;;3.10;99.90;;;;;;5115775;27;19911;-76
2022/01/05 02:31:10;;;;;;;;;;;3.10;99.90;;;;;;5099881;27;19922;-77
2022/01/05 02:33:37;;;;;;;;;;;3.00;99.90;;;;;;5112058;28;20309;-77
2022/01/05 02:36:04;;;;;;;;;;;3.00;99.90;;;;;;5114373;28;19957;-77
2022/01/05 02:38:30;;;;;;;;;;;3.00;99.90;;;;;;5095779;28;19912;-82
2022/01/05 02:40:55;;;;;;;;;;;2.90;99.90;;;;;;5095733;28;19941;-77
2022/01/05 02:43:21;;;;;;;;;;;2.90;99.90;;;;;;5113929;28;19919;-77
2022/01/05 02:45:46;;;;;;;;;;;2.90;99.90;;;;;;5114254;27;19926;-76
2022/01/05 02:48:12;;;;;;;;;;;2.80;99.90;;;;;;5134087;27;19911;-77
2022/01/05 02:50:38;;;;;;;;;;;2.90;99.90;;;;;;5133839;27;19914;-76
2022/01/05 02:53:03;;;;;;;;;;;2.80;99.90;;;;;;5116822;27;19927;-76
2022/01/05 02:55:29;;;;;;;;;;;2.90;99.90;;;;;;5095620;28;19912;-74
2022/01/05 02:57:54;;;;;;;;;;;2.80;99.90;;;;;;5095179;28;19920;-75
2022/01/05 03:00:20;;;;;;;;;;;2.80;99.90;;;;;;5095283;28;19962;-75
2022/01/05 03:02:45;;;;;;;;;;;2.80;99.90;;;;;;5113103;28;20022;-75
2022/01/05 03:05:11;;;;;;;;;;;2.70;99.90;;;;;;5109386;27;19957;-75
2022/01/05 03:07:40;;;;;;;;;;;2.80;99.90;;;;;;5133589;27;19915;-75
2022/01/05 03:10:06;;;;;;;;;;;2.80;99.90;;;;;;5134276;27;20006;-75
2022/01/05 03:12:32;;;;;;;;;;;2.70;99.90;;;;;;5100739;28;19962;-75
2022/01/05 03:14:57;;;;;;;;;;;2.70;99.90;;;;;;5094477;28;19962;-75
2022/01/05 03:17:23;;;;;;;;;;;2.60;99.90;;;;;;5095303;28;19923;-75
2022/01/05 03:19:48;;;;;;;;;;;2.70;99.90;;;;;;5113616;27;19915;-74
2022/01/05 03:22:14;;;;;;;;;;;2.70;99.90;;;;;;5115852;27;19926;-75
2022/01/05 03:24:41;;;;;;;;;;;2.60;99.90;;;;;;5097171;27;21325;-75
2022/01/05 03:27:07;;;;;;;;;;;2.60;99.90;;;;;;5134133;27;19964;-75
2022/01/05 03:29:32;;;;;;;;;;;2.50;99.90;;;;;;5115084;27;19946;-75
2022/01/05 03:31:58;;;;;;;;;;;2.60;99.90;;;;;;5114737;28;19966;-75
2022/01/05 03:34:23;;;;;;;;;;;2.60;99.90;;;;;;5133676;27;20403;-75
2022/01/05 03:36:49;;;;;;;;;;;2.60;99.90;;;;;;5114917;27;19911;-75
2022/01/05 03:39:15;;;;;;;;;;;2.50;99.90;;;;;;5133555;27;19998;-75
2022/01/05 03:41:41;;;;;;;;;;;2.60;99.90;;;;;;5114951;27;19950;-76
2022/01/05 03:44:06;;;;;;;;;;;2.50;99.90;;;;;;5121287;27;19911;-75
2022/01/05 03:46:32;;;;;;;;;;;2.50;99.90;;;;;;5113469;28;19912;-75
2022/01/05 03:48:57;;;;;;;;;;;2.50;99.90;;;;;;5124383;27;20036;-75
2022/01/05 03:51:23;;;;;;;;;;;2.50;99.90;;;;;;5114956;27;19922;-75
2022/01/05 03:53:48;;;;;;;;;;;2.50;99.90;;;;;;5114741;27;19912;-75
2022/01/05 03:56:14;;;;;;;;;;;2.40;99.90;;;;;;5097611;28;19972;-75
2022/01/05 03:58:39;;;;;;;;;;;2.40;99.90;;;;;;5097934;28;19996;-80
2022/01/05 04:01:05;;;;;;;;;;;2.40;99.90;;;;;;5098169;28;20351;-75
2022/01/05 04:03:30;;;;;;;;;;;2.40;99.90;;;;;;5114753;28;19934;-75
2022/01/05 04:05:56;;;;;;;;;;;2.40;99.90;;;;;;5132613;28;19915;-75
2022/01/05 04:08:21;;;;;;;;;;;2.40;99.90;;;;;;5096738;28;19919;-74
2022/01/05 04:10:47;;;;;;;;;;;2.40;99.90;;;;;;5111192;28;19908;-74
2022/01/05 04:13:14;;;;;;;;;;;2.40;99.90;;;;;;5112932;28;20014;-76
2022/01/05 04:15:40;;;;;;;;;;;2.30;99.90;;;;;;5095611;28;19912;-80
2022/01/05 04:18:06;;;;;;;;;;;2.40;99.90;;;;;;5094149;28;20275;-75
2022/01/05 04:20:31;;;;;;;;;;;2.40;99.90;;;;;;5094666;28;19995;-76
2022/01/05 04:22:57;;;;;;;;;;;2.30;99.90;;;;;;5111935;28;20018;-77
2022/01/05 04:25:22;;;;;;;;;;;2.20;99.90;;;;;;5094728;28;19978;-77
2022/01/05 04:27:48;;;;;;;;;;;2.20;99.90;;;;;;5109138;28;19911;-76
2022/01/05 04:30:13;;;;;;;;;;;2.20;99.90;;;;;;5132370;28;20006;-75
2022/01/05 04:32:39;;;;;;;;;;;2.30;99.90;;;;;;5114903;28;19953;-76
2022/01/05 04:35:05;;;;;;;;;;;2.30;99.90;;;;;;5114127;28;20003;-76
2022/01/05 04:37:32;;;;;;;;;;;2.30;99.90;;;;;;5097609;28;19919;-77
2022/01/05 04:39:58;;;;;;;;;;;2.30;99.90;;;;;;5097344;28;20052;-76
2022/01/05 04:42:24;;;;;;;;;;;2.30;99.90;;;;;;5115203;28;19938;-75
2022/01/05 04:44:50;;;;;;;;;;;2.30;99.90;;;;;;5130673;28;19912;-75
2022/01/05 04:47:15;;;;;;;;;;;2.20;99.90;;;;;;5112416;28;19923;-76
2022/01/05 04:49:41;;;;;;;;;;;2.20;99.90;;;;;;5094230;28;19917;-75
2022/01/05 04:52:07;;;;;;;;;;;2.30;99.90;;;;;;5077049;28;19916;-75
2022/01/05 04:54:32;;;;;;;;;;;2.30;99.90;;;;;;5112005;28;19915;-76
2022/01/05 04:56:58;;;;;;;;;;;2.40;99.90;;;;;;5110720;28;19908;-76
2022/01/05 04:59:23;;;;;;;;;;;2.50;99.90;;;;;;5094139;28;20374;-77
2022/01/05 05:01:49;;;;;;;;;;;2.60;99.90;;;;;;5132016;28;20386;-76
2022/01/05 05:04:14;;;;;;;;;;;2.60;99.90;;;;;;5113776;28;20329;-76
2022/01/05 05:06:40;;;;;;;;;;;2.60;99.90;;;;;;5114580;27;19915;-75
2022/01/05 05:09:05;;;;;;;;;;;2.60;99.90;;;;;;5135987;27;19911;-75
2022/01/05 05:11:31;;;;;;;;;;;2.70;99.90;;;;;;5101287;27;19915;-75
2022/01/05 05:13:56;;;;;;;;;;;2.70;99.90;;;;;;5136129;27;19911;-75
2022/01/05 05:16:22;;;;;;;;;;;2.60;99.90;;;;;;5136402;27;19915;-74
2022/01/05 05:18:47;;;;;;;;;;;2.60;99.90;;;;;;5117374;27;20012;-77
2022/01/05 05:21:13;;;;;;;;;;;2.50;99.90;;;;;;5117676;27;20385;-75
2022/01/05 05:23:38;;;;;;;;;;;2.40;99.90;;;;;;5117241;27;20369;-75
2022/01/05 05:26:04;;;;;;;;;;;2.40;99.90;;;;;;5100479;27;19995;-75
2022/01/05 05:28:29;;;;;;;;;;;2.40;99.90;;;;;;5117851;27;19918;-75
2022/01/05 05:30:55;;;;;;;;;;;2.30;99.90;;;;;;5117063;27;19911;-75
2022/01/05 05:33:21;;;;;;;;;;;2.30;99.90;;;;;;5117507;27;19919;-75
2022/01/05 05:35:46;;;;;;;;;;;2.30;99.90;;;;;;5136113;27;19907;-75
2022/01/05 05:38:12;;;;;;;;;;;2.30;99.90;;;;;;5116503;27;19915;-75
2022/01/05 05:40:38;;;;;;;;;;;2.30;99.90;;;;;;5117632;27;19947;-75
2022/01/05 05:43:04;;;;;;;;;;;2.30;99.90;;;;;;5099218;27;19950;-76
2022/01/05 05:45:29;;;;;;;;;;;2.40;99.90;;;;;;5117626;27;19965;-76
2022/01/05 05:47:55;;;;;;;;;;;2.50;99.90;;;;;;5135439;27;19911;-76
2022/01/05 05:50:20;;;;;;;;;;;2.60;99.90;;;;;;5136010;27;20413;-76
2022/01/05 05:52:46;;;;;;;;;;;2.70;99.90;;;;;;5116897;27;19916;-77
2022/01/05 05:55:11;;;;;;;;;;;2.70;99.90;;;;;;5135068;27;20346;-76
2022/01/05 05:57:37;;;;;;;;;;;2.80;99.90;;;;;;5135289;27;20304;-76
2022/01/05 06:00:04;;;;;;;;;;;2.90;99.90;;;;;;5116361;27;20056;-77
2022/01/05 06:02:30;;;;;;;;;;;3.00;99.90;;;;;;5133843;27;19915;-77
2022/01/05 06:04:55;;;;;;;;;;;3.00;99.90;;;;;;5113116;28;19911;-82
2022/01/05 06:07:21;;;;;;;;;;;3.10;99.90;;;;;;5096809;28;20344;-77
2022/01/05 06:09:46;;;;;;;;;;;3.10;99.90;;;;;;5096531;28;19911;-76
2022/01/05 06:12:12;;;;;;;;;;;3.10;99.90;;;;;;5096186;28;19912;-77
2022/01/05 06:14:37;;;;;;;;;;;3.10;99.90;;;;;;5096559;28;19909;-77
2022/01/05 06:17:03;;;;;;;;;;;3.10;99.90;;;;;;5096063;28;20431;-80
2022/01/05 06:19:28;;;;;;;;;;;3.10;99.90;;;;;;5095759;28;19922;-77
2022/01/05 06:21:54;;;;;;;;;;;3.10;99.90;;;;;;5096550;28;19920;-80
2022/01/05 06:24:19;;;;;;;;;;;3.10;99.90;;;;;;5114110;28;20440;-78
2022/01/05 06:26:45;;;;;;;;;;;3.20;99.90;;;;;;5100595;27;20432;-78
2022/01/05 06:29:13;;;;;;;;;;;3.20;99.90;;;;;;5116402;27;19916;-78
2022/01/05 06:31:40;;;;;;;;;;;3.20;99.90;;;;;;5099699;27;19919;-77
2022/01/05 06:34:05;;;;;;;;;;;3.20;99.90;;;;;;5134386;27;19915;-77
2022/01/05 06:36:30;;;;;;;;;;;3.30;99.90;;;;;;5116290;27;19916;-77
2022/01/05 06:38:56;;;;;;;;;;;3.20;99.90;;;;;;5116410;27;19912;-84
2022/01/05 06:41:22;;;;;;;;;;;3.30;99.90;;;;;;5134456;27;19922;-77
2022/01/05 06:43:47;;;;;;;;;;;3.30;99.90;;;;;;5099359;27;19912;-77
2022/01/05 06:46:13;;;;;;;;;;;3.40;99.90;;;;;;5121532;27;19915;-78
2022/01/05 06:48:38;;;;;;;;;;;3.40;99.90;;;;;;5111031;27;19915;-77
2022/01/05 06:51:04;;;;;;;;;;;3.30;99.90;;;;;;5130822;27;19934;-77
2022/01/05 06:53:29;;;;;;;;;;;3.40;99.90;;;;;;5132729;27;19911;-76
2022/01/05 06:55:55;;;;;;;;;;;3.40;99.90;;;;;;5098010;27;20283;-75
2022/01/05 06:58:20;;;;;;;;;;;3.50;99.90;;;;;;5097355;27;19919;-77
2022/01/05 07:00:46;;;;;;;;;;;3.40;99.90;;;;;;5134209;27;19908;-76
2022/01/05 07:03:12;;;;;;;;;;;3.50;99.90;;;;;;5133038;27;20324;-78
2022/01/05 07:05:38;;;;;;;;;;;3.50;99.90;;;;;;5113079;27;19912;-75
2022/01/05 07:08:04;;;;;;;;;;;3.50;99.90;;;;;;5098458;27;19950;-76
2022/01/05 07:10:30;;;;;;;;;;;3.50;99.90;;;;;;5116638;27;20360;-76
2022/01/05 07:12:55;;;;;;;;;;;3.50;99.90;;;;;;5116164;27;19914;-76
2022/01/05 07:15:21;;;;;;;;;;;3.50;99.90;;;;;;5133683;27;19916;-75
2022/01/05 07:17:47;;;;;;;;;;;3.50;99.90;;;;;;5077249;28;19919;-76
2022/01/05 07:20:13;;;;;;;;;;;3.50;99.90;;;;;;5132363;27;19919;-75
2022/01/05 07:22:38;;;;;;;;;;;3.50;99.90;;;;;;5115546;27;19923;-76
2022/01/05 07:25:04;;;;;;;;;;;3.50;99.90;;;;;;5111631;27;20053;-81
2022/01/05 07:27:30;;;;;;;;;;;3.50;99.90;;;;;;5114331;27;19911;-77
2022/01/05 07:29:55;;;;;;;;;;;3.50;99.90;;;;;;5094493;27;19922;-77
2022/01/05 07:32:21;;;;;;;;;;;3.60;99.90;;;;;;5114863;27;19922;-77
2022/01/05 07:34:47;;;;;;;;;;;3.60;99.90;;;;;;5133250;27;19930;-77
2022/01/05 07:37:12;;;;;;;;;;;3.60;99.90;;;;;;5115089;27;19938;-77
2022/01/05 07:39:38;;;;;;;;;;;3.60;99.90;;;;;;5134063;27;19908;-77
2022/01/05 07:42:04;;;;;;;;;;;3.70;99.90;;;;;;5132730;27;19920;-76
2022/01/05 07:44:29;;;;;;;;;;;3.70;99.90;;;;;;5110057;28;20002;-76
2022/01/05 07:46:55;;;;;;;;;;;3.70;99.90;;;;;;5115657;27;20301;-77
2022/01/05 07:49:20;;;;;;;;;;;3.70;99.90;;;;;;5132997;27;20283;-76
2022/01/05 07:51:46;;;;;;;;;;;3.80;99.90;;;;;;5115201;27;20385;-76
2022/01/05 07:54:11;;;;;;;;;;;3.70;99.90;;;;;;5114239;28;20355;-76
2022/01/05 07:56:37;;;;;;;;;;;3.80;99.90;;;;;;5131099;27;19971;-78
2022/01/05 07:59:04;;;;;;;;;;;3.70;99.90;;;;;;5127489;27;20362;-75
2022/01/05 08:01:29;;;;;;;;;;;3.80;99.90;;;;;;5133531;28;20036;-76
2022/01/05 08:03:55;;;;;;;;;;;3.80;99.90;;;;;;5096123;28;19919;-75
2022/01/05 08:06:21;;;;;;;;;;;3.80;99.90;;;;;;5115830;28;19914;-77
2022/01/05 08:08:47;;;;;;;;;;;3.80;99.90;;;;;;5096901;28;19958;-77
2022/01/05 08:11:13;;;;;;;;;;;3.90;99.90;;;;;;5096862;28;19912;-76
2022/01/05 08:13:39;;;;;;;;;;;3.90;99.90;;;;;;5095478;28;19918;-78
2022/01/05 08:16:04;;;;;;;;;;;3.90;99.90;;;;;;5131112;28;20385;-76
2022/01/05 08:18:30;;;;;;;;;;;3.90;99.90;;;;;;5130178;28;19912;-77
2022/01/05 08:20:56;;;;;;;;;;;3.90;99.90;;;;;;5111774;28;20424;-77
2022/01/05 08:23:22;;;;;;;;;;;3.90;99.90;;;;;;5110056;28;20446;-78
2022/01/05 08:25:48;;;;;;;;;;;3.90;99.90;;;;;;5090096;28;19924;-77
2022/01/05 08:28:14;;;;;;;;;;;4.00;99.90;;;;;;5108105;28;20259;-78
2022/01/05 08:30:39;;;;;;;;;;;4.00;99.90;;;;;;5115187;28;19908;-77
2022/01/05 08:33:06;;;;;;;;;;;4.00;99.90;;;;;;5114630;28;19915;-77
2022/01/05 08:35:32;;;;;;;;;;;4.00;99.90;;;;;;5097438;28;19998;-77
2022/01/05 08:37:59;;;;;;;;;;;4.10;99.90;;;;;;5114364;28;19990;-77
2022/01/05 08:40:25;;;;;;;;;;;4.20;99.90;;;;;;5114610;28;20363;-77
2022/01/05 08:42:51;;;;;;;;;;;4.30;99.90;;;;;;5135230;27;20006;-77
2022/01/05 08:45:17;;;;;;;;;;;4.40;99.90;;;;;;5101429;27;19951;-75
2022/01/05 08:47:47;;;;;;;;;;;4.60;99.90;;;;;;5117550;27;19965;-76
2022/01/05 08:50:13;;;;;;;;;;;4.80;99.90;;;;;;5136665;27;19914;-83
2022/01/05 08:52:39;;;;;;;;;;;4.90;99.90;;;;;;5137075;27;20412;-76
2022/01/05 08:55:05;;;;;;;;;;;4.90;99.90;;;;;;5137450;27;19916;-76
2022/01/05 08:57:31;;;;;;;;;;;4.90;99.90;;;;;;5136821;27;19907;-76
2022/01/05 08:59:57;;;;;;;;;;;4.80;99.90;;;;;;5118536;27;20394;-76
2022/01/05 09:02:22;;;;;;;;;;;4.80;99.90;;;;;;5118214;27;19962;-77
2022/01/05 09:04:51;;;;;;;;;;;4.70;99.90;;;;;;5136817;27;19939;-77
2022/01/05 09:07:17;;;;;;;;;;;4.70;99.90;;;;;;5101619;27;19918;-82
2022/01/05 09:09:44;;;;;;;;;;;4.80;99.90;;;;;;5136864;27;19908;-76
2022/01/05 09:12:09;;;;;;;;;;;4.90;99.90;;;;;;5118866;27;19954;-76
2022/01/05 09:14:35;;;;;;;;;;;4.80;99.90;;;;;;5136504;27;19999;-76
2022/01/05 09:17:01;;;;;;;;;;;4.80;99.90;;;;;;5137032;27;19919;-75
2022/01/05 09:19:28;;;;;;;;;;;4.80;99.90;;;;;;5118151;27;19911;-76
2022/01/05 09:21:54;;;;;;;;;;;4.90;99.90;;;;;;5118198;27;20026;-76
2022/01/05 09:24:19;;;;;;;;;;;5.00;99.90;;;;;;5117798;27;20015;-77
2022/01/05 09:26:45;;;;;;;;;;;5.00;99.90;;;;;;5136928;27;20423;-76
2022/01/05 09:29:10;;;;;;;;;;;5.10;99.90;;;;;;5098043;27;19940;-76
2022/01/05 09:31:36;;;;;;;;;;;5.10;99.90;;;;;;5117785;27;19922;-76
2022/01/05 09:34:02;;;;;;;;;;;5.10;99.90;;;;;;5136443;27;19912;-78
2022/01/05 09:36:40;;;;;;;;;;;5.20;99.90;;;;;;5117460;27;19912;-77
2022/01/05 09:41:56;;;;;;;;;;;5.20;99.90;;;;;;5120720;27;19978;-76
2022/01/05 09:44:25;;;;;;;;;;;5.20;99.90;;;;;;5117679;27;19912;-81
2022/01/05 09:47:02;;;;;;;;;;;5.20;99.90;;;;;;5135476;27;20359;-78
2022/01/05 09:49:38;;;;;;;;;;;5.30;99.90;;;;;;5117405;27;20367;-79
2022/01/05 09:52:10;;;;;;;;;;;6.00;99.90;;;;;;5118018;27;20347;-79
2022/01/05 09:54:38;;;;;;;;;;;6.70;99.90;;;;;;5116258;27;19968;-78
2022/01/05 09:57:05;;;;;;;;;;;7.30;99.30;;;;;;5117637;27;19918;-78
2022/01/05 09:59:32;;;;;;;;;;;7.40;97.40;;;;;;5100221;27;20313;-78
2022/01/05 10:01:57;;;;;;;;;;;7.30;97.70;;;;;;5135567;27;20464;-79
2022/01/05 10:04:23;;;;;;;;;;;7.30;97.60;;;;;;5117532;27;19912;-86
2022/01/05 10:06:49;;;;;;;;;;;7.10;97.20;;;;;;5117685;27;20363;-79
2022/01/05 10:09:14;;;;;;;;;;;7.00;97.50;;;;;;5109494;28;19987;-79
2022/01/05 10:11:40;;;;;;;;;;;6.80;97.80;;;;;;5080223;28;20428;-79
2022/01/05 10:14:06;;;;;;;;;;;6.70;98.30;;;;;;5115140;28;20007;-79
2022/01/05 10:16:32;;;;;;;;;;;6.60;98.50;;;;;;5114472;28;20278;-80
2022/01/05 10:18:58;;;;;;;;;;;6.60;98.70;;;;;;5097587;28;19911;-79
2022/01/05 10:21:32;;;;;;;;;;;6.50;98.70;;;;;;5096540;28;19916;-83
2022/01/05 10:23:57;;;;;;;;;;;6.40;98.90;;;;;;5121034;27;19920;-79
2022/01/05 10:26:24;;;;;;;;;;;6.40;99.20;;;;;;5135143;27;19911;-80
2022/01/05 10:28:51;;;;;;;;;;;6.30;99.20;;;;;;5116440;27;19911;-79
2022/01/05 10:31:18;;;;;;;;;;;6.30;99.70;;;;;;5100435;27;20317;-79
2022/01/05 10:33:44;;;;;;;;;;;6.20;99.80;;;;;;5134983;27;19998;-79
2022/01/05 10:36:09;;;;;;;;;;;6.20;99.90;;;;;;5135693;27;20308;-79
2022/01/05 10:38:35;;;;;;;;;;;6.20;99.90;;;;;;5116223;27;19912;-79
2022/01/05 10:41:14;;;;;;;;;;;6.10;99.90;;;;;;5116111;27;20002;-79
2022/01/05 10:43:59;;;;;;;;;;;6.20;99.90;;;;;;5114870;27;19918;-81
2022/01/05 10:46:32;;;;;;;;;;;6.20;99.90;;;;;;5133236;27;20388;-79
2022/01/05 10:48:58;;;;;;;;;;;6.30;99.90;;;;;;5116846;27;19912;-79
2022/01/05 10:51:28;;;;;;;;;;;6.40;99.90;;;;;;5116556;27;19913;-80
2022/01/05 10:54:13;;;;;;;;;;;6.50;99.90;;;;;;5135252;27;19942;-79
2022/01/05 10:56:39;;;;;;;;;;;6.50;99.90;;;;;;5134806;27;19908;-79
2022/01/05 10:59:05;;;;;;;;;;;6.50;99.90;;;;;;5116626;27;20416;-80
2022/01/05 11:01:31;;;;;;;;;;;6.50;99.90;;;;;;5116152;27;19915;-84
2022/01/05 11:03:56;;;;;;;;;;;6.50;99.80;;;;;;5116552;27;19911;-80
2022/01/05 11:06:22;;;;;;;;;;;6.40;99.80;;;;;;5116309;27;19907;-80
2022/01/05 11:08:47;;;;;;;;;;;6.40;99.90;;;;;;5134213;27;19907;-79
2022/01/05 11:11:35;;;;;;;;;;;6.40;99.90;;;;;;5133976;27;19994;-78
2022/01/05 11:14:00;;;;;;;;;;;6.30;99.90;;;;;;5096216;28;19908;-79
2022/01/05 11:16:27;;;;;;;;;;;6.40;99.90;;;;;;5115420;27;19916;-78
2022/01/05 11:19:10;;;;;;;;;;;6.40;99.90;;;;;;5133045;27;19964;-78
2022/01/05 11:21:39;;;;;;;;;;;6.50;99.90;;;;;;5095519;28;19922;-79
2022/01/05 11:24:06;;;;;;;;;;;6.70;99.80;;;;;;5108079;28;19927;-78
2022/01/05 11:26:35;;;;;;;;;;;6.70;99.50;;;;;;5113775;28;19912;-83
2022/01/05 11:29:03;;;;;;;;;;;6.80;99.50;;;;;;5096388;28;19998;-79
2022/01/05 11:31:30;;;;;;;;;;;6.80;99.60;;;;;;5114324;28;19929;-79
2022/01/05 11:33:56;;;;;;;;;;;6.90;99.80;;;;;;5095584;28;19907;-79
2022/01/05 11:36:22;;;;;;;;;;;7.10;99.20;;;;;;5095941;28;20386;-78
2022/01/05 11:38:47;;;;;;;;;;;7.30;99.30;;;;;;5095403;28;19912;-78
2022/01/05 11:41:14;;;;;;;;;;;7.50;98.60;;;;;;5113835;28;19933;-78
2022/01/05 11:43:40;;;;;;;;;;;7.50;98.10;;;;;;5095161;28;19908;-79
2022/01/05 11:46:13;;;;;;;;;;;7.40;98.10;;;;;;5114032;28;20323;-78
2022/01/05 11:48:40;;;;;;;;;;;7.30;98.30;;;;;;5094713;28;19914;-80
2022/01/05 11:51:06;;;;;;;;;;;7.20;98.40;;;;;;5095692;28;20329;-79
2022/01/05 11:53:41;;;;;;;;;;;7.10;98.50;;;;;;5113869;28;19915;-79
2022/01/05 11:56:08;;;;;;;;;;;7.00;98.50;;;;;;5095496;28;19907;-79
2022/01/05 11:58:35;;;;;;;;;;;6.90;98.60;;;;;;5095307;28;20408;-79
2022/01/05 12:01:12;;;;;;;;;;;6.80;98.60;;;;;;5094978;28;19908;-79
2022/01/05 12:03:50;;;;;;;;;;;6.80;98.80;;;;;;5112809;28;19968;-83
2022/01/05 12:06:16;;;;;;;;;;;6.80;98.90;;;;;;5095265;28;19968;-79
2022/01/05 12:08:43;;;;;;;;;;;6.90;99.00;;;;;;5112898;28;19918;-80
2022/01/05 12:11:28;;;;;;;;;;;6.90;98.70;;;;;;5078407;28;19912;-82
2022/01/05 12:13:53;;;;;;;;;;;6.80;98.90;;;;;;5113133;28;19907;-79
2022/01/05 12:16:19;;;;;;;;;;;6.80;99.10;;;;;;5113022;28;20291;-79
2022/01/05 12:19:01;;;;;;;;;;;6.80;99.10;;;;;;5081107;28;20002;-78
2022/01/05 12:21:40;;;;;;;;;;;6.80;99.00;;;;;;5099103;28;19916;-79
2022/01/05 12:24:05;;;;;;;;;;;6.80;99.00;;;;;;5117169;28;19974;-79
2022/01/05 12:26:31;;;;;;;;;;;6.90;98.90;;;;;;5099054;28;20328;-79
2022/01/05 12:28:57;;;;;;;;;;;6.90;98.90;;;;;;5081671;28;19955;-80
2022/01/05 12:31:42;;;;;;;;;;;6.90;98.80;;;;;;5098826;28;20367;-79
2022/01/05 12:34:07;;;;;;;;;;;6.90;98.70;;;;;;5098593;28;20010;-78
2022/01/05 12:36:34;;;;;;;;;;;6.90;98.50;;;;;;5098629;28;20402;-78
2022/01/05 12:39:00;;;;;;;;;;;7.00;98.40;;;;;;5098028;28;20006;-78
2022/01/05 12:41:29;;;;;;;;;;;7.00;98.20;;;;;;5117036;28;19915;-78
2022/01/05 12:43:56;;;;;;;;;;;7.10;98.10;;;;;;5097696;28;20010;-80
2022/01/05 12:46:38;;;;;;;;;;;7.10;98.00;;;;;;5098733;28;20374;-78
2022/01/05 12:49:12;;;;;;;;;;;7.20;97.70;;;;;;5116702;28;19908;-78
2022/01/05 12:51:46;;;;;;;;;;;7.20;97.70;;;;;;5098352;28;20017;-79
2022/01/05 12:54:16;;;;;;;;;;;7.20;97.50;;;;;;5116553;28;20320;-79
2022/01/05 12:56:51;;;;;;;;;;;7.20;97.50;;;;;;5098440;28;19958;-84
2022/01/05 12:59:21;;;;;;;;;;;7.10;97.60;;;;;;5116892;28;19915;-78
2022/01/05 13:01:51;;;;;;;;;;;7.10;97.70;;;;;;5098150;28;19916;-78
2022/01/05 13:04:18;;;;;;;;;;;7.10;97.30;;;;;;5116736;28;19999;-78
2022/01/05 13:06:44;;;;;;;;;;;7.10;97.50;;;;;;5097992;28;20002;-85
2022/01/05 13:09:11;;;;;;;;;;;7.10;97.60;;;;;;5098186;28;19912;-79
2022/01/05 13:11:40;;;;;;;;;;;7.10;97.80;;;;;;5098404;28;19915;-79
2022/01/05 13:14:14;;;;;;;;;;;7.00;98.00;;;;;;5097601;28;19911;-79
2022/01/05 13:16:39;;;;;;;;;;;7.10;98.30;;;;;;5116465;28;19995;-79
2022/01/05 13:19:10;;;;;;;;;;;7.10;98.10;;;;;;5080878;28;20165;-79
2022/01/05 13:21:43;;;;;;;;;;;7.10;98.00;;;;;;5116480;28;19927;-79
2022/01/05 13:24:08;;;;;;;;;;;7.10;98.00;;;;;;5097180;28;19924;-79
2022/01/05 13:26:34;;;;;;;;;;;7.10;98.00;;;;;;5135942;27;19964;-79
2022/01/05 13:29:18;;;;;;;;;;;7.00;98.20;;;;;;5135505;27;19960;-78
2022/01/05 13:31:57;;;;;;;;;;;7.00;98.40;;;;;;5117867;27;19917;-79
2022/01/05 13:34:29;;;;;;;;;;;7.00;98.60;;;;;;5118023;27;19908;-80
2022/01/05 13:36:55;;;;;;;;;;;7.00;98.40;;;;;;5116983;27;19907;-80
2022/01/05 13:39:34;;;;;;;;;;;6.90;98.20;;;;;;5094229;28;19919;-79
2022/01/05 13:42:00;;;;;;;;;;;6.90;98.20;;;;;;5116705;27;19919;-79
2022/01/05 13:44:25;;;;;;;;;;;6.90;98.20;;;;;;5096734;28;19916;-80
2022/01/05 13:46:51;;;;;;;;;;;6.90;98.50;;;;;;5091483;27;19916;-79
2022/01/05 13:49:16;;;;;;;;;;;6.90;98.50;;;;;;5117514;27;19912;-79
2022/01/05 13:51:42;;;;;;;;;;;6.90;98.40;;;;;;5136048;27;19922;-79
2022/01/05 13:54:09;;;;;;;;;;;6.90;98.40;;;;;;5096653;28;20497;-79
2022/01/05 13:56:39;;;;;;;;;;;7.00;98.50;;;;;;5117260;27;20355;-78
2022/01/05 13:59:04;;;;;;;;;;;7.00;98.70;;;;;;5117164;27;19908;-80
2022/01/05 14:01:30;;;;;;;;;;;6.90;98.60;;;;;;5100399;27;19926;-79
2022/01/05 14:03:57;;;;;;;;;;;7.00;98.60;;;;;;5135190;27;20275;-79
2022/01/05 14:06:24;;;;;;;;;;;7.00;98.60;;;;;;5135658;27;19918;-80
2022/01/05 14:08:53;;;;;;;;;;;7.00;98.50;;;;;;5116569;27;19914;-83
2022/01/05 14:11:19;;;;;;;;;;;7.10;98.70;;;;;;5136117;27;19993;-79
2022/01/05 14:13:46;;;;;;;;;;;7.10;98.60;;;;;;5117188;27;19919;-79
2022/01/05 14:16:16;;;;;;;;;;;7.00;98.60;;;;;;5116990;27;19923;-79
2022/01/05 14:18:45;;;;;;;;;;;7.00;98.70;;;;;;5117117;27;19916;-79
2022/01/05 14:21:11;;;;;;;;;;;7.00;98.80;;;;;;5116137;27;19951;-80
2022/01/05 14:23:46;;;;;;;;;;;6.90;99.00;;;;;;5116963;27;20364;-80
2022/01/05 14:26:12;;;;;;;;;;;6.90;99.50;;;;;;5135188;27;19927;-79
2022/01/05 14:28:37;;;;;;;;;;;6.90;99.70;;;;;;5096384;28;20283;-79
2022/01/05 14:31:03;;;;;;;;;;;6.80;99.70;;;;;;5132137;27;19955;-78